Aviation Digital Data Service (ADDS)

Output produced by METARs form (0559 UTC 20 October 2018)
found at http://www.aviationweather.gov/metar/data/
 
LCRA 200450Z 32003KT CAVOK 22/14 Q1012 NOSIG
TAF LCRA 200431Z 2006/2024 08006KT CAVOK 
     PROB30 
     TEMPO 2010/2016 VRB15G25KT 4000 TSRA BKN030CB
       
LCLK 200530Z 34003KT 8000 NSC 24/22 Q1013 NOSIG
TAF LCLK 200530Z 2006/2106 36009KT 8000 FEW025 SCT050 
     PROB40 2006/2106 4000 DU 
     BECMG 2007/2009 07010KT 
     BECMG 2010/2013 18009KT 
     PROB30 
     TEMPO 2010/2016 VCTS FEW025CB 
     BECMG 2015/2018 34007KT
       
LCPH 200530Z 02006KT 7000 NSC 24/17 Q1013
TAF LCPH 200530Z 2006/2106 02007KT 8000 FEW025 
     PROB40 2006/2106 4000 DU 
     BECMG 2008/2011 28012KT 
     BECMG 2016/2020 02007KT